sensor_id;sensor_type;location;lat;lon;timestamp;pressure;altitude;pressure_sealevel;temperature
64904;BMP280;51401;48.882;12.598;2023-05-16T00:02:17;82572.50;;;10.58
64904;BMP280;51401;48.882;12.598;2023-05-16T00:04:42;82429.56;;;10.55
64904;BMP280;51401;48.882;12.598;2023-05-16T00:07:08;82246.63;;;10.53
64904;BMP280;51401;48.882;12.598;2023-05-16T00:09:33;82034.03;;;10.52
64904;BMP280;51401;48.882;12.598;2023-05-16T00:11:58;81820.81;;;10.51
64904;BMP280;51401;48.882;12.598;2023-05-16T00:14:24;81628.25;;;10.49
64904;BMP280;51401;48.882;12.598;2023-05-16T00:16:55;81391.16;;;10.49
64904;BMP280;51401;48.882;12.598;2023-05-16T00:19:23;81194.41;;;10.44
64904;BMP280;51401;48.882;12.598;2023-05-16T00:21:48;81017.09;;;10.38
64904;BMP280;51401;48.882;12.598;2023-05-16T00:24:14;80832.97;;;10.37
64904;BMP280;51401;48.882;12.598;2023-05-16T00:26:39;80487.91;;;10.50
64904;BMP280;51401;48.882;12.598;2023-05-16T00:29:05;80220.94;;;10.53
64904;BMP280;51401;48.882;12.598;2023-05-16T00:31:31;80071.72;;;10.45
64904;BMP280;51401;48.882;12.598;2023-05-16T00:33:56;79928.69;;;10.39
64904;BMP280;51401;48.882;12.598;2023-05-16T00:36:22;79802.91;;;10.35
64904;BMP280;51401;48.882;12.598;2023-05-16T00:38:47;79575.13;;;10.34
64904;BMP280;51401;48.882;12.598;2023-05-16T00:41:13;79448.06;;;10.25
64904;BMP280;51401;48.882;12.598;2023-05-16T00:43:38;79380.59;;;10.18
64904;BMP280;51401;48.882;12.598;2023-05-16T00:46:04;79257.63;;;10.19
64904;BMP280;51401;48.882;12.598;2023-05-16T00:48:30;79112.31;;;10.18
64904;BMP280;51401;48.882;12.598;2023-05-16T00:50:55;78865.00;;;10.20
64904;BMP280;51401;48.882;12.598;2023-05-16T00:53:22;78719.97;;;10.17
64904;BMP280;51401;48.882;12.598;2023-05-16T00:55:48;78619.25;;;10.14
64904;BMP280;51401;48.882;12.598;2023-05-16T00:58:13;78530.84;;;10.11
64904;BMP280;51401;48.882;12.598;2023-05-16T01:00:39;78311.72;;;10.20
64904;BMP280;51401;48.882;12.598;2023-05-16T01:03:04;78081.94;;;10.26
64904;BMP280;51401;48.882;12.598;2023-05-16T01:05:30;77854.97;;;10.29
64904;BMP280;51401;48.882;12.598;2023-05-16T01:07:56;77682.03;;;10.33
64904;BMP280;51401;48.882;12.598;2023-05-16T01:10:21;77522.50;;;10.33
64904;BMP280;51401;48.882;12.598;2023-05-16T01:15:31;77343.25;;;10.27
64904;BMP280;51401;48.882;12.598;2023-05-16T01:18:05;77250.63;;;10.27
64904;BMP280;51401;48.882;12.598;2023-05-16T01:20:38;77147.75;;;10.27
64904;BMP280;51401;48.882;12.598;2023-05-16T01:28:39;76904.25;;;10.22
64904;BMP280;51401;48.882;12.598;2023-05-16T01:31:05;76934.59;;;10.17
64904;BMP280;51401;48.882;12.598;2023-05-16T01:33:31;76897.44;;;10.16
64904;BMP280;51401;48.882;12.598;2023-05-16T01:36:09;76819.16;;;10.15
64904;BMP280;51401;48.882;12.598;2023-05-16T01:41:24;76808.97;;;10.01
64904;BMP280;51401;48.882;12.598;2023-05-16T01:43:58;76860.97;;;9.93
64904;BMP280;51401;48.882;12.598;2023-05-16T01:46:26;76884.41;;;9.91
64904;BMP280;51401;48.882;12.598;2023-05-16T01:51:51;76969.59;;;9.80
64904;BMP280;51401;48.882;12.598;2023-05-16T01:54:19;77043.56;;;9.75
64904;BMP280;51401;48.882;12.598;2023-05-16T01:56:50;77127.81;;;9.70
64904;BMP280;51401;48.882;12.598;2023-05-16T01:59:18;77184.91;;;9.66
64904;BMP280;51401;48.882;12.598;2023-05-16T02:01:44;77207.47;;;9.66
64904;BMP280;51401;48.882;12.598;2023-05-16T02:04:09;77201.75;;;9.65
64904;BMP280;51401;48.882;12.598;2023-05-16T02:06:34;77171.78;;;9.68
64904;BMP280;51401;48.882;12.598;2023-05-16T02:09:00;77140.66;;;9.70
64904;BMP280;51401;48.882;12.598;2023-05-16T02:11:25;77118.38;;;9.73
64904;BMP280;51401;48.882;12.598;2023-05-16T02:13:50;77116.94;;;9.74
64904;BMP280;51401;48.882;12.598;2023-05-16T02:16:16;77121.81;;;9.76
64904;BMP280;51401;48.882;12.598;2023-05-16T02:18:41;77112.66;;;9.77
64904;BMP280;51401;48.882;12.598;2023-05-16T02:21:07;77045.84;;;9.86
64904;BMP280;51401;48.882;12.598;2023-05-16T02:23:32;77031.25;;;9.85
64904;BMP280;51401;48.882;12.598;2023-05-16T02:25:58;77029.53;;;9.83
64904;BMP280;51401;48.882;12.598;2023-05-16T02:28:23;77011.25;;;9.85
64904;BMP280;51401;48.882;12.598;2023-05-16T02:30:58;76948.38;;;9.93
64904;BMP280;51401;48.882;12.598;2023-05-16T02:33:25;76796.06;;;10.06
64904;BMP280;51401;48.882;12.598;2023-05-16T02:35:51;76732.03;;;10.13
64904;BMP280;51401;48.882;12.598;2023-05-16T02:38:16;76732.34;;;10.11
64904;BMP280;51401;48.882;12.598;2023-05-16T02:40:42;76738.91;;;10.10
64904;BMP280;51401;48.882;12.598;2023-05-16T02:43:07;76755.19;;;10.08
64904;BMP280;51401;48.882;12.598;2023-05-16T02:45:32;76793.47;;;10.06
64904;BMP280;51401;48.882;12.598;2023-05-16T02:47:58;76835.25;;;10.02
64904;BMP280;51401;48.882;12.598;2023-05-16T02:50:23;76887.25;;;9.98
64904;BMP280;51401;48.882;12.598;2023-05-16T02:52:48;76959.53;;;9.96
64904;BMP280;51401;48.882;12.598;2023-05-16T02:55:13;76982.69;;;9.96
64904;BMP280;51401;48.882;12.598;2023-05-16T02:57:39;77002.69;;;9.96
64904;BMP280;51401;48.882;12.598;2023-05-16T03:00:05;76966.69;;;9.96
64904;BMP280;51401;48.882;12.598;2023-05-16T03:02:30;76992.38;;;9.91
64904;BMP280;51401;48.882;12.598;2023-05-16T03:04:56;76990.09;;;9.89
64904;BMP280;51401;48.882;12.598;2023-05-16T03:07:21;77003.84;;;9.88
64904;BMP280;51401;48.882;12.598;2023-05-16T03:09:46;77082.69;;;9.80
64904;BMP280;51401;48.882;12.598;2023-05-16T03:12:11;77118.69;;;9.80
64904;BMP280;51401;48.882;12.598;2023-05-16T03:14:37;77070.94;;;9.81
64904;BMP280;51401;48.882;12.598;2023-05-16T03:17:02;77039.28;;;9.78
64904;BMP280;51401;48.882;12.598;2023-05-16T03:19:27;76948.44;;;9.84
64904;BMP280;51401;48.882;12.598;2023-05-16T03:21:53;76853.03;;;9.86
64904;BMP280;51401;48.882;12.598;2023-05-16T03:24:18;76780.22;;;9.88
64904;BMP280;51401;48.882;12.598;2023-05-16T03:26:45;76719.66;;;9.89
64904;BMP280;51401;48.882;12.598;2023-05-16T03:29:11;76679.97;;;9.88
64904;BMP280;51401;48.882;12.598;2023-05-16T03:31:36;76602.50;;;9.94
64904;BMP280;51401;48.882;12.598;2023-05-16T03:34:01;76545.88;;;9.98
64904;BMP280;51401;48.882;12.598;2023-05-16T03:36:27;76548.78;;;9.97
64904;BMP280;51401;48.882;12.598;2023-05-16T03:38:53;76508.72;;;10.02
64904;BMP280;51401;48.882;12.598;2023-05-16T03:41:18;76506.41;;;10.04
64904;BMP280;51401;48.882;12.598;2023-05-16T03:43:43;76545.50;;;10.05
64904;BMP280;51401;48.882;12.598;2023-05-16T03:46:09;76579.78;;;10.08
64904;BMP280;51401;48.882;12.598;2023-05-16T03:48:34;76602.06;;;10.09
64904;BMP280;51401;48.882;12.598;2023-05-16T03:50:59;76567.72;;;10.15
64904;BMP280;51401;48.882;12.598;2023-05-16T03:53:24;76574.56;;;10.17
64904;BMP280;51401;48.882;12.598;2023-05-16T03:55:50;76578.78;;;10.23
64904;BMP280;51401;48.882;12.598;2023-05-16T03:58:15;76612.72;;;10.27
64904;BMP280;51401;48.882;12.598;2023-05-16T04:00:41;76651.22;;;10.36
64904;BMP280;51401;48.882;12.598;2023-05-16T04:03:06;76695.72;;;10.44
64904;BMP280;51401;48.882;12.598;2023-05-16T04:05:32;76774.84;;;10.52
64904;BMP280;51401;48.882;12.598;2023-05-16T04:07:58;76842.50;;;10.64
64904;BMP280;51401;48.882;12.598;2023-05-16T04:10:23;77056.66;;;10.69
64904;BMP280;51401;48.882;12.598;2023-05-16T04:12:48;77328.69;;;10.70
64904;BMP280;51401;48.882;12.598;2023-05-16T04:15:14;77502.91;;;10.81
64904;BMP280;51401;48.882;12.598;2023-05-16T04:17:39;77793.63;;;10.83
64904;BMP280;51401;48.882;12.598;2023-05-16T04:20:05;78148.47;;;10.82
64904;BMP280;51401;48.882;12.598;2023-05-16T04:22:31;78409.09;;;10.93
64904;BMP280;51401;48.882;12.598;2023-05-16T04:24:56;78655.47;;;11.01
64904;BMP280;51401;48.882;12.598;2023-05-16T04:27:22;78883.25;;;11.09
64904;BMP280;51401;48.882;12.598;2023-05-16T04:29:48;79011.66;;;11.23
64904;BMP280;51401;48.882;12.598;2023-05-16T04:32:13;79204.91;;;11.30
64904;BMP280;51401;48.882;12.598;2023-05-16T04:34:39;79362.13;;;11.36
64904;BMP280;51401;48.882;12.598;2023-05-16T04:37:05;79608.47;;;11.42
64904;BMP280;51401;48.882;12.598;2023-05-16T04:39:32;79812.59;;;11.50
64904;BMP280;51401;48.882;12.598;2023-05-16T04:41:58;80115.25;;;11.49
64904;BMP280;51401;48.882;12.598;2023-05-16T04:44:24;80343.34;;;11.58
64904;BMP280;51401;48.882;12.598;2023-05-16T04:46:50;80738.94;;;11.44
64904;BMP280;51401;48.882;12.598;2023-05-16T04:49:16;80883.13;;;11.48
64904;BMP280;51401;48.882;12.598;2023-05-16T04:51:42;80909.44;;;11.63
64904;BMP280;51401;48.882;12.598;2023-05-16T04:54:07;81025.91;;;11.68
64904;BMP280;51401;48.882;12.598;2023-05-16T04:56:33;81103.75;;;11.85
64904;BMP280;51401;48.882;12.598;2023-05-16T04:58:58;81325.22;;;11.93
64904;BMP280;51401;48.882;12.598;2023-05-16T05:01:23;81631.59;;;11.90
64904;BMP280;51401;48.882;12.598;2023-05-16T05:03:49;81849.03;;;12.01
64904;BMP280;51401;48.882;12.598;2023-05-16T05:06:14;81957.44;;;12.11
64904;BMP280;51401;48.882;12.598;2023-05-16T05:08:40;82107.69;;;12.15
64904;BMP280;51401;48.882;12.598;2023-05-16T05:11:05;82170.19;;;12.53
64904;BMP280;51401;48.882;12.598;2023-05-16T05:13:31;82530.09;;;12.76
64904;BMP280;51401;48.882;12.598;2023-05-16T05:15:56;83236.41;;;12.58
64904;BMP280;51401;48.882;12.598;2023-05-16T05:18:21;83687.66;;;12.38
64904;BMP280;51401;48.882;12.598;2023-05-16T05:20:47;83762.25;;;12.62
64904;BMP280;51401;48.882;12.598;2023-05-16T05:23:12;83999.50;;;12.68
64904;BMP280;51401;48.882;12.598;2023-05-16T05:25:37;84233.91;;;12.48
64904;BMP280;51401;48.882;12.598;2023-05-16T05:28:03;84185.22;;;12.83
64904;BMP280;51401;48.882;12.598;2023-05-16T05:30:28;84392.44;;;13.16
64904;BMP280;51401;48.882;12.598;2023-05-16T05:32:54;84860.28;;;13.13
64904;BMP280;51401;48.882;12.598;2023-05-16T05:35:20;85121.25;;;12.94
64904;BMP280;51401;48.882;12.598;2023-05-16T05:37:45;85174.41;;;12.93
64904;BMP280;51401;48.882;12.598;2023-05-16T05:40:11;85134.41;;;13.10
64904;BMP280;51401;48.882;12.598;2023-05-16T05:42:36;85295.97;;;13.27
64904;BMP280;51401;48.882;12.598;2023-05-16T05:45:02;85545.94;;;13.38
64904;BMP280;51401;48.882;12.598;2023-05-16T05:47:28;85871.28;;;13.45
64904;BMP280;51401;48.882;12.598;2023-05-16T05:49:53;86063.75;;;13.53
64904;BMP280;51401;48.882;12.598;2023-05-16T05:52:18;86189.50;;;13.60
64904;BMP280;51401;48.882;12.598;2023-05-16T05:54:44;86249.28;;;13.52
64904;BMP280;51401;48.882;12.598;2023-05-16T05:57:09;86322.28;;;13.80
64904;BMP280;51401;48.882;12.598;2023-05-16T05:59:34;86626.59;;;13.88
64904;BMP280;51401;48.882;12.598;2023-05-16T06:02:00;86929.09;;;13.64
64904;BMP280;51401;48.882;12.598;2023-05-16T06:04:26;86959.53;;;14.38
64904;BMP280;51401;48.882;12.598;2023-05-16T06:06:51;87309.19;;;14.71
64904;BMP280;51401;48.882;12.598;2023-05-16T06:09:16;87842.03;;;15.05
64904;BMP280;51401;48.882;12.598;2023-05-16T06:11:42;88199.50;;;15.26
64904;BMP280;51401;48.882;12.598;2023-05-16T06:14:10;88500.47;;;15.36
64904;BMP280;51401;48.882;12.598;2023-05-16T06:16:35;88738.97;;;16.05
64904;BMP280;51401;48.882;12.598;2023-05-16T06:19:00;89405.69;;;16.41
64904;BMP280;51401;48.882;12.598;2023-05-16T06:21:25;89817.13;;;16.52
64904;BMP280;51401;48.882;12.598;2023-05-16T06:23:51;89641.13;;;16.78
64904;BMP280;51401;48.882;12.598;2023-05-16T06:26:16;89966.06;;;17.25
64904;BMP280;51401;48.882;12.598;2023-05-16T06:28:42;90553.41;;;17.37
64904;BMP280;51401;48.882;12.598;2023-05-16T06:31:07;90995.78;;;16.49
64904;BMP280;51401;48.882;12.598;2023-05-16T06:33:33;90997.84;;;17.35
64904;BMP280;51401;48.882;12.598;2023-05-16T06:35:59;91255.28;;;17.32
64904;BMP280;51401;48.882;12.598;2023-05-16T06:38:24;90926.25;;;16.31
64904;BMP280;51401;48.882;12.598;2023-05-16T06:40:50;90651.63;;;16.72
64904;BMP280;51401;48.882;12.598;2023-05-16T06:43:16;90678.56;;;16.37
64904;BMP280;51401;48.882;12.598;2023-05-16T06:45:43;90789.91;;;17.08
64904;BMP280;51401;48.882;12.598;2023-05-16T06:48:09;90917.97;;;17.59
64904;BMP280;51401;48.882;12.598;2023-05-16T06:50:34;91836.75;;;18.70
64904;BMP280;51401;48.882;12.598;2023-05-16T06:53:00;92421.41;;;18.70
64904;BMP280;51401;48.882;12.598;2023-05-16T06:55:26;92239.03;;;18.48
64904;BMP280;51401;48.882;12.598;2023-05-16T06:57:51;92076.09;;;18.22
64904;BMP280;51401;48.882;12.598;2023-05-16T07:00:17;91954.13;;;18.81
64904;BMP280;51401;48.882;12.598;2023-05-16T07:02:42;92268.78;;;19.20
64904;BMP280;51401;48.882;12.598;2023-05-16T07:05:07;92396.75;;;19.70
64904;BMP280;51401;48.882;12.598;2023-05-16T07:07:34;92554.06;;;19.66
64904;BMP280;51401;48.882;12.598;2023-05-16T07:09:59;92630.66;;;19.91
64904;BMP280;51401;48.882;12.598;2023-05-16T07:12:24;92449.16;;;19.68
64904;BMP280;51401;48.882;12.598;2023-05-16T07:14:50;92682.50;;;19.90
64904;BMP280;51401;48.882;12.598;2023-05-16T07:17:16;92931.88;;;19.70
64904;BMP280;51401;48.882;12.598;2023-05-16T07:19:41;92703.34;;;19.42
64904;BMP280;51401;48.882;12.598;2023-05-16T07:22:06;92585.88;;;19.70
64904;BMP280;51401;48.882;12.598;2023-05-16T07:24:31;92792.00;;;20.53
64904;BMP280;51401;48.882;12.598;2023-05-16T07:26:57;93024.22;;;20.27
64904;BMP280;51401;48.882;12.598;2023-05-16T07:29:22;92913.56;;;19.88
64904;BMP280;51401;48.882;12.598;2023-05-16T07:31:47;92783.03;;;19.91
64904;BMP280;51401;48.882;12.598;2023-05-16T07:34:13;93135.13;;;20.69
64904;BMP280;51401;48.882;12.598;2023-05-16T07:36:38;93194.22;;;21.48
64904;BMP280;51401;48.882;12.598;2023-05-16T07:39:03;93742.25;;;21.48
64904;BMP280;51401;48.882;12.598;2023-05-16T07:41:29;94668.84;;;20.76
64904;BMP280;51401;48.882;12.598;2023-05-16T07:43:55;95598.81;;;20.22
64904;BMP280;51401;48.882;12.598;2023-05-16T07:46:20;95635.00;;;20.79
64904;BMP280;51401;48.882;12.598;2023-05-16T07:48:45;95701.81;;;20.42
64904;BMP280;51401;48.882;12.598;2023-05-16T07:51:11;95742.88;;;20.66
64904;BMP280;51401;48.882;12.598;2023-05-16T07:53:36;96130.47;;;20.65
64904;BMP280;51401;48.882;12.598;2023-05-16T07:56:02;96581.59;;;19.96
64904;BMP280;51401;48.882;12.598;2023-05-16T07:58:27;96479.66;;;19.66
64904;BMP280;51401;48.882;12.598;2023-05-16T08:00:53;96524.44;;;19.32
64904;BMP280;51401;48.882;12.598;2023-05-16T08:03:18;96581.44;;;18.63
64904;BMP280;51401;48.882;12.598;2023-05-16T08:05:44;96498.50;;;18.29
64904;BMP280;51401;48.882;12.598;2023-05-16T08:08:09;96243.59;;;18.36
64904;BMP280;51401;48.882;12.598;2023-05-16T08:10:34;96174.09;;;18.06
64904;BMP280;51401;48.882;12.598;2023-05-16T08:13:00;96137.09;;;18.04
64904;BMP280;51401;48.882;12.598;2023-05-16T08:15:29;95985.41;;;17.78
64904;BMP280;51401;48.882;12.598;2023-05-16T08:17:56;95652.25;;;17.70
64904;BMP280;51401;48.882;12.598;2023-05-16T08:20:22;95568.25;;;17.49
64904;BMP280;51401;48.882;12.598;2023-05-16T08:22:47;95155.34;;;17.62
64904;BMP280;51401;48.882;12.598;2023-05-16T08:25:13;95068.56;;;17.76
64904;BMP280;51401;48.882;12.598;2023-05-16T08:27:38;94975.59;;;17.88
64904;BMP280;51401;48.882;12.598;2023-05-16T08:30:04;95152.88;;;17.96
64904;BMP280;51401;48.882;12.598;2023-05-16T08:32:29;95224.63;;;17.77
64904;BMP280;51401;48.882;12.598;2023-05-16T08:34:55;95238.19;;;17.97
64904;BMP280;51401;48.882;12.598;2023-05-16T08:37:20;95308.00;;;17.84
64904;BMP280;51401;48.882;12.598;2023-05-16T08:39:46;95337.09;;;18.02
64904;BMP280;51401;48.882;12.598;2023-05-16T08:42:11;95259.59;;;18.01
64904;BMP280;51401;48.882;12.598;2023-05-16T08:44:36;95307.50;;;18.02
64904;BMP280;51401;48.882;12.598;2023-05-16T08:47:10;95409.03;;;17.90
64904;BMP280;51401;48.882;12.598;2023-05-16T08:49:38;95450.47;;;17.65
64904;BMP280;51401;48.882;12.598;2023-05-16T08:52:07;95364.22;;;17.56
64904;BMP280;51401;48.882;12.598;2023-05-16T08:54:33;95339.19;;;17.39
64904;BMP280;51401;48.882;12.598;2023-05-16T08:57:00;95326.28;;;17.19
64904;BMP280;51401;48.882;12.598;2023-05-16T08:59:26;95046.34;;;17.32
64904;BMP280;51401;48.882;12.598;2023-05-16T09:01:51;95019.88;;;17.46
64904;BMP280;51401;48.882;12.598;2023-05-16T09:04:17;95034.13;;;17.56
64904;BMP280;51401;48.882;12.598;2023-05-16T09:06:42;95203.19;;;17.79
64904;BMP280;51401;48.882;12.598;2023-05-16T09:09:08;94729.00;;;17.91
64904;BMP280;51401;48.882;12.598;2023-05-16T09:11:37;94367.69;;;18.13
64904;BMP280;51401;48.882;12.598;2023-05-16T09:14:03;93969.72;;;17.84
64904;BMP280;51401;48.882;12.598;2023-05-16T09:16:29;93813.66;;;17.96
64904;BMP280;51401;48.882;12.598;2023-05-16T09:18:57;93669.69;;;17.91
64904;BMP280;51401;48.882;12.598;2023-05-16T09:21:28;93679.97;;;18.24
64904;BMP280;51401;48.882;12.598;2023-05-16T09:23:56;93993.97;;;18.38
64904;BMP280;51401;48.882;12.598;2023-05-16T09:26:21;94198.13;;;18.67
64904;BMP280;51401;48.882;12.598;2023-05-16T09:28:47;94580.84;;;18.70
64904;BMP280;51401;48.882;12.598;2023-05-16T09:31:23;94659.22;;;18.79
64904;BMP280;51401;48.882;12.598;2023-05-16T09:33:51;94765.56;;;18.86
64904;BMP280;51401;48.882;12.598;2023-05-16T09:36:16;94950.03;;;19.28
64904;BMP280;51401;48.882;12.598;2023-05-16T09:38:42;95080.31;;;19.36
64904;BMP280;51401;48.882;12.598;2023-05-16T09:41:09;95100.84;;;19.61
64904;BMP280;51401;48.882;12.598;2023-05-16T09:43:40;95078.94;;;19.53
64904;BMP280;51401;48.882;12.598;2023-05-16T09:46:07;94893.56;;;18.98
64904;BMP280;51401;48.882;12.598;2023-05-16T09:48:32;94747.66;;;18.66
64904;BMP280;51401;48.882;12.598;2023-05-16T09:50:58;94399.25;;;18.08
64904;BMP280;51401;48.882;12.598;2023-05-16T09:53:30;93866.44;;;17.60
64904;BMP280;51401;48.882;12.598;2023-05-16T09:56:03;93729.22;;;17.63
64904;BMP280;51401;48.882;12.598;2023-05-16T09:58:30;93615.78;;;17.68
64904;BMP280;51401;48.882;12.598;2023-05-16T10:00:56;93674.34;;;17.50
64904;BMP280;51401;48.882;12.598;2023-05-16T10:03:22;93243.06;;;17.14
64904;BMP280;51401;48.882;12.598;2023-05-16T10:05:49;92939.00;;;17.37
64904;BMP280;51401;48.882;12.598;2023-05-16T10:08:15;92830.53;;;16.92
64904;BMP280;51401;48.882;12.598;2023-05-16T10:10:40;92637.72;;;17.00
64904;BMP280;51401;48.882;12.598;2023-05-16T10:13:07;92524.97;;;17.29
64904;BMP280;51401;48.882;12.598;2023-05-16T10:15:35;92548.97;;;17.52
64904;BMP280;51401;48.882;12.598;2023-05-16T10:18:02;92746.81;;;17.72
64904;BMP280;51401;48.882;12.598;2023-05-16T10:20:29;92679.91;;;17.61
64904;BMP280;51401;48.882;12.598;2023-05-16T10:22:55;92890.19;;;18.12
64904;BMP280;51401;48.882;12.598;2023-05-16T10:25:28;93198.75;;;18.28
64904;BMP280;51401;48.882;12.598;2023-05-16T10:27:55;93634.31;;;18.98
64904;BMP280;51401;48.882;12.598;2023-05-16T10:30:20;93907.66;;;19.10
64904;BMP280;51401;48.882;12.598;2023-05-16T10:32:46;94206.53;;;19.06
64904;BMP280;51401;48.882;12.598;2023-05-16T10:35:11;94200.94;;;19.09
64904;BMP280;51401;48.882;12.598;2023-05-16T10:37:38;94318.75;;;19.25
64904;BMP280;51401;48.882;12.598;2023-05-16T10:40:05;94679.28;;;19.64
64904;BMP280;51401;48.882;12.598;2023-05-16T10:42:32;94883.84;;;19.47
64904;BMP280;51401;48.882;12.598;2023-05-16T10:50:39;94736.56;;;19.09
64904;BMP280;51401;48.882;12.598;2023-05-16T10:53:12;94691.78;;;18.53
64904;BMP280;51401;48.882;12.598;2023-05-16T10:55:38;94709.13;;;19.10
64904;BMP280;51401;48.882;12.598;2023-05-16T10:58:03;94706.22;;;18.95
64904;BMP280;51401;48.882;12.598;2023-05-16T11:00:29;94755.31;;;19.00
64904;BMP280;51401;48.882;12.598;2023-05-16T11:03:03;94813.78;;;19.37
64904;BMP280;51401;48.882;12.598;2023-05-16T11:05:29;94973.28;;;19.18
64904;BMP280;51401;48.882;12.598;2023-05-16T11:08:05;95079.97;;;18.98
64904;BMP280;51401;48.882;12.598;2023-05-16T11:10:31;94975.88;;;19.00
64904;BMP280;51401;48.882;12.598;2023-05-16T11:13:17;94972.69;;;18.84
64904;BMP280;51401;48.882;12.598;2023-05-16T11:16:27;94995.22;;;18.74
64904;BMP280;51401;48.882;12.598;2023-05-16T11:18:52;94947.09;;;18.66
64904;BMP280;51401;48.882;12.598;2023-05-16T11:21:18;94574.41;;;18.71
64904;BMP280;51401;48.882;12.598;2023-05-16T11:23:43;94310.47;;;18.89
64904;BMP280;51401;48.882;12.598;2023-05-16T11:26:08;94458.59;;;18.36
64904;BMP280;51401;48.882;12.598;2023-05-16T11:28:33;94702.03;;;18.56
64904;BMP280;51401;48.882;12.598;2023-05-16T11:30:59;94494.34;;;18.21
64904;BMP280;51401;48.882;12.598;2023-05-16T11:33:25;94539.16;;;18.05
64904;BMP280;51401;48.882;12.598;2023-05-16T11:36:01;94522.16;;;18.30
64904;BMP280;51401;48.882;12.598;2023-05-16T11:38:29;94445.88;;;18.28
64904;BMP280;51401;48.882;12.598;2023-05-16T11:41:01;94649.16;;;18.16
64904;BMP280;51401;48.882;12.598;2023-05-16T11:43:26;94271.00;;;17.97
64904;BMP280;51401;48.882;12.598;2023-05-16T11:45:54;94802.59;;;18.17
64904;BMP280;51401;48.882;12.598;2023-05-16T11:48:23;95275.59;;;17.81
64904;BMP280;51401;48.882;12.598;2023-05-16T11:50:49;95516.69;;;17.76
64904;BMP280;51401;48.882;12.598;2023-05-16T11:53:14;95450.69;;;17.67
64904;BMP280;51401;48.882;12.598;2023-05-16T11:55:40;95287.50;;;17.50
64904;BMP280;51401;48.882;12.598;2023-05-16T11:58:06;95594.66;;;17.40
64904;BMP280;51401;48.882;12.598;2023-05-16T12:00:31;95344.56;;;17.14
64904;BMP280;51401;48.882;12.598;2023-05-16T12:03:00;95513.38;;;17.24
64904;BMP280;51401;48.882;12.598;2023-05-16T12:05:26;95553.16;;;17.27
64904;BMP280;51401;48.882;12.598;2023-05-16T12:07:54;95576.31;;;17.40
64904;BMP280;51401;48.882;12.598;2023-05-16T12:10:20;95540.94;;;17.60
64904;BMP280;51401;48.882;12.598;2023-05-16T12:12:47;95442.41;;;17.84
64904;BMP280;51401;48.882;12.598;2023-05-16T12:15:13;95318.50;;;17.52
64904;BMP280;51401;48.882;12.598;2023-05-16T12:17:40;95244.88;;;17.28
64904;BMP280;51401;48.882;12.598;2023-05-16T12:20:07;95058.53;;;16.97
64904;BMP280;51401;48.882;12.598;2023-05-16T12:22:39;94981.25;;;16.91
64904;BMP280;51401;48.882;12.598;2023-05-16T12:25:24;94796.63;;;16.90
64904;BMP280;51401;48.882;12.598;2023-05-16T12:27:56;94571.66;;;16.84
64904;BMP280;51401;48.882;12.598;2023-05-16T12:30:23;94482.88;;;16.68
64904;BMP280;51401;48.882;12.598;2023-05-16T12:32:59;94322.44;;;16.84
64904;BMP280;51401;48.882;12.598;2023-05-16T12:35:29;94508.81;;;16.66
64904;BMP280;51401;48.882;12.598;2023-05-16T12:37:54;94270.09;;;17.02
64904;BMP280;51401;48.882;12.598;2023-05-16T12:40:20;94468.44;;;17.09
64904;BMP280;51401;48.882;12.598;2023-05-16T12:42:53;94557.88;;;16.84
64904;BMP280;51401;48.882;12.598;2023-05-16T12:45:18;94622.13;;;16.79
64904;BMP280;51401;48.882;12.598;2023-05-16T12:47:44;94401.63;;;16.61
64904;BMP280;51401;48.882;12.598;2023-05-16T12:50:10;94400.53;;;16.51
64904;BMP280;51401;48.882;12.598;2023-05-16T12:52:57;93906.56;;;16.02
64904;BMP280;51401;48.882;12.598;2023-05-16T12:55:23;93533.13;;;15.89
64904;BMP280;51401;48.882;12.598;2023-05-16T12:57:49;93019.88;;;15.58
64904;BMP280;51401;48.882;12.598;2023-05-16T13:00:16;92480.22;;;15.48
64904;BMP280;51401;48.882;12.598;2023-05-16T13:02:46;91818.06;;;15.16
64904;BMP280;51401;48.882;12.598;2023-05-16T13:05:12;90454.59;;;14.91
64904;BMP280;51401;48.882;12.598;2023-05-16T13:07:38;89987.34;;;14.81
64904;BMP280;51401;48.882;12.598;2023-05-16T13:10:07;88656.00;;;14.76
64904;BMP280;51401;48.882;12.598;2023-05-16T13:12:38;88327.25;;;14.62
64904;BMP280;51401;48.882;12.598;2023-05-16T13:15:07;88200.72;;;14.76
64904;BMP280;51401;48.882;12.598;2023-05-16T13:17:34;88087.78;;;14.93
64904;BMP280;51401;48.882;12.598;2023-05-16T13:19:59;87853.69;;;15.00
64904;BMP280;51401;48.882;12.598;2023-05-16T13:22:25;87884.75;;;14.87
64904;BMP280;51401;48.882;12.598;2023-05-16T13:24:51;87897.19;;;14.92
64904;BMP280;51401;48.882;12.598;2023-05-16T13:27:16;87818.31;;;14.78
64904;BMP280;51401;48.882;12.598;2023-05-16T13:29:42;87784.56;;;14.82
64904;BMP280;51401;48.882;12.598;2023-05-16T13:32:08;87746.06;;;14.69
64904;BMP280;51401;48.882;12.598;2023-05-16T13:34:33;87807.91;;;14.76
64904;BMP280;51401;48.882;12.598;2023-05-16T13:36:58;87928.53;;;14.51
64904;BMP280;51401;48.882;12.598;2023-05-16T13:39:24;87702.28;;;14.45
64904;BMP280;51401;48.882;12.598;2023-05-16T13:41:49;87486.97;;;14.15
64904;BMP280;51401;48.882;12.598;2023-05-16T13:44:15;87177.16;;;14.28
64904;BMP280;51401;48.882;12.598;2023-05-16T13:46:40;86982.28;;;14.22
64904;BMP280;51401;48.882;12.598;2023-05-16T13:49:07;86667.44;;;14.00
64904;BMP280;51401;48.882;12.598;2023-05-16T13:51:32;86178.56;;;14.03
64904;BMP280;51401;48.882;12.598;2023-05-16T13:53:58;85667.16;;;14.01
64904;BMP280;51401;48.882;12.598;2023-05-16T13:56:23;85272.81;;;13.93
64904;BMP280;51401;48.882;12.598;2023-05-16T13:58:48;84987.31;;;13.95
64904;BMP280;51401;48.882;12.598;2023-05-16T14:01:23;84777.31;;;13.89
64904;BMP280;51401;48.882;12.598;2023-05-16T14:03:48;84414.34;;;13.84
64904;BMP280;51401;48.882;12.598;2023-05-16T14:06:14;84212.88;;;13.78
64904;BMP280;51401;48.882;12.598;2023-05-16T14:08:39;83795.44;;;13.76
64904;BMP280;51401;48.882;12.598;2023-05-16T14:11:05;83455.47;;;13.70
64904;BMP280;51401;48.882;12.598;2023-05-16T14:13:30;83090.66;;;13.68
64904;BMP280;51401;48.882;12.598;2023-05-16T14:15:55;82820.75;;;13.64